Observation data for Olton on 07/20/2019      Previous  Date       Current Mesonet Observations  Soil Data  Daily Summary Page  Observations in Plain Language
KONS 200500Z 17017G25KT 29/12 A2995 RMK A01 T02930118  RH  034%=      5-min Rain = 0
KONS 200505Z 17016G24KT 29/12 A2995 RMK A01 T02920117  RH  035%=      5-min Rain = 0
KONS 200510Z 18016G21KT 29/12 A2995 RMK A01 T02910117  RH  035%=      5-min Rain = 0
KONS 200515Z 18016G22KT 29/12 A2995 RMK A01 T02880116  RH  035%=      5-min Rain = 0
KONS 200520Z 18017G23KT 29/12 A2995 RMK A01 T02880115  RH  035%=      5-min Rain = 0
KONS 200525Z 18016G22KT 29/11 A2995 RMK A01 T02870114  RH  035%=      5-min Rain = 0
KONS 200530Z 18015G20KT 29/11 A2995 RMK A01 T02850113  RH  035%=      5-min Rain = 0
KONS 200535Z 18016KT 28/11 A2995 RMK A01 T02840112  RH  035%=      5-min Rain = 0
KONS 200540Z 18017G23KT 28/11 A2995 RMK A01 T02840109  RH  034%=      5-min Rain = 0
KONS 200545Z 18016G22KT 28/11 A2995 RMK A01 T02820108  RH  034%=      5-min Rain = 0
KONS 200550Z 18017KT 28/11 A2995 RMK A01 T02820107  RH  034%=      5-min Rain = 0
KONS 200555Z 18016KT 28/11 A2995 RMK A01 T02810107  RH  034%=      5-min Rain = 0
KONS 200600Z 18016G21KT 28/11 A2995 RMK A01 T02800107  RH  035%=      5-min Rain = 0
KONS 200605Z 18016G21KT 28/11 A2995 RMK A01 T02780106  RH  035%=      5-min Rain = 0
KONS 200610Z 18016G22KT 28/11 A2995 RMK A01 T02790105  RH  034%=      5-min Rain = 0
KONS 200615Z 18015G20KT 28/11 A2996 RMK A01 T02770105  RH  035%=      5-min Rain = 0
KONS 200620Z 18015G20KT 28/11 A2996 RMK A01 T02750105  RH  035%=      5-min Rain = 0
KONS 200625Z 18014G19KT 27/11 A2996 RMK A01 T02730105  RH  035%=      5-min Rain = 0
KONS 200630Z 18014KT 27/11 A2996 RMK A01 T02720105  RH  036%=      5-min Rain = 0
KONS 200635Z 18014KT 27/11 A2996 RMK A01 T02700105  RH  036%=      5-min Rain = 0
KONS 200640Z 18014KT 27/11 A2996 RMK A01 T02690105  RH  036%=      5-min Rain = 0
KONS 200645Z 18014KT 27/11 A2996 RMK A01 T02680105  RH  037%=      5-min Rain = 0
KONS 200650Z 18013KT 27/11 A2996 RMK A01 T02650106  RH  037%=      5-min Rain = 0
KONS 200655Z 18013G18KT 26/11 A2996 RMK A01 T02640106  RH  038%=      5-min Rain = 0
KONS 200700Z 18014KT 27/11 A2996 RMK A01 T02650105  RH  037%=      5-min Rain = 0
KONS 200705Z 18013KT 26/11 A2996 RMK A01 T02620106  RH  038%=      5-min Rain = 0
KONS 200710Z 18014KT 26/11 A2996 RMK A01 T02610106  RH  038%=      5-min Rain = 0
KONS 200715Z 18014G19KT 26/11 A2996 RMK A01 T02610105  RH  038%=      5-min Rain = 0
KONS 200720Z 18014G20KT 26/11 A2996 RMK A01 T02620106  RH  038%=      5-min Rain = 0
KONS 200725Z 18013KT 26/11 A2996 RMK A01 T02590106  RH  039%=      5-min Rain = 0
KONS 200730Z 18013G18KT 26/11 A2996 RMK A01 T02580107  RH  040%=      5-min Rain = 0
KONS 200735Z 18013KT 26/11 A2996 RMK A01 T02570108  RH  040%=      5-min Rain = 0
KONS 200740Z 18011KT 26/11 A2996 RMK A01 T02550109  RH  041%=      5-min Rain = 0
KONS 200745Z 19012KT 25/11 A2996 RMK A01 T02530109  RH  041%=      5-min Rain = 0
KONS 200750Z 19012KT 25/11 A2997 RMK A01 T02530110  RH  041%=      5-min Rain = 0
KONS 200755Z 19012KT 25/11 A2996 RMK A01 T02520110  RH  042%=      5-min Rain = 0
KONS 200800Z 19012KT 25/11 A2996 RMK A01 T02510111  RH  042%=      5-min Rain = 0
KONS 200805Z 19012KT 25/11 A2996 RMK A01 T02500112  RH  043%=      5-min Rain = 0
KONS 200810Z 19013KT 25/11 A2996 RMK A01 T02500112  RH  043%=      5-min Rain = 0
KONS 200815Z 19012KT 25/11 A2997 RMK A01 T02490113  RH  043%=      5-min Rain = 0
KONS 200820Z 19012KT 25/11 A2997 RMK A01 T02470113  RH  044%=      5-min Rain = 0
KONS 200825Z 19012KT 25/11 A2996 RMK A01 T02470114  RH  044%=      5-min Rain = 0
KONS 200830Z 19012KT 25/11 A2996 RMK A01 T02480114  RH  044%=      5-min Rain = 0
KONS 200835Z 19012KT 25/11 A2996 RMK A01 T02490114  RH  044%=      5-min Rain = 0
KONS 200840Z 19012KT 25/11 A2996 RMK A01 T02480114  RH  044%=      5-min Rain = 0
KONS 200845Z 19012KT 25/12 A2996 RMK A01 T02450115  RH  045%=      5-min Rain = 0
KONS 200850Z 19012KT 24/12 A2996 RMK A01 T02440116  RH  045%=      5-min Rain = 0
KONS 200855Z 19011KT 24/12 A2996 RMK A01 T02440116  RH  046%=      5-min Rain = 0
KONS 200900Z 19011KT 24/12 A2996 RMK A01 T02420116  RH  046%=      5-min Rain = 0
KONS 200905Z 19011KT 24/12 A2996 RMK A01 T02410116  RH  046%=      5-min Rain = 0
KONS 200910Z 19011KT 24/12 A2996 RMK A01 T02390117  RH  047%=      5-min Rain = 0
KONS 200915Z 19011KT 24/12 A2996 RMK A01 T02390117  RH  047%=      5-min Rain = 0
KONS 200920Z 19011KT 24/12 A2996 RMK A01 T02380117  RH  047%=      5-min Rain = 0
KONS 200925Z 19011KT 24/12 A2996 RMK A01 T02370117  RH  048%=      5-min Rain = 0
KONS 200930Z 19011KT 24/12 A2996 RMK A01 T02360118  RH  048%=      5-min Rain = 0
KONS 200935Z 19012KT 24/12 A2996 RMK A01 T02360118  RH  049%=      5-min Rain = 0
KONS 200940Z 19011KT 24/12 A2995 RMK A01 T02350118  RH  049%=      5-min Rain = 0
KONS 200945Z 19011KT 23/12 A2995 RMK A01 T02340119  RH  049%=      5-min Rain = 0
KONS 200950Z 19010KT 23/12 A2995 RMK A01 T02330120  RH  050%=      5-min Rain = 0
KONS 200955Z 18010KT 23/12 A2995 RMK A01 T02310120  RH  050%=      5-min Rain = 0
KONS 201000Z 18010KT 23/12 A2995 RMK A01 T02310121  RH  051%=      5-min Rain = 0
KONS 201005Z 18009KT 23/12 A2996 RMK A01 T02280121  RH  052%=      5-min Rain = 0
KONS 201010Z 18010KT 23/12 A2995 RMK A01 T02250122  RH  053%=      5-min Rain = 0
KONS 201015Z 18010KT 23/12 A2996 RMK A01 T02250123  RH  053%=      5-min Rain = 0
KONS 201020Z 18010KT 22/12 A2996 RMK A01 T02240123  RH  054%=      5-min Rain = 0
KONS 201025Z 18009KT 22/12 A2996 RMK A01 T02230123  RH  054%=      5-min Rain = 0
KONS 201030Z 18010KT 22/12 A2996 RMK A01 T02230123  RH  054%=      5-min Rain = 0
KONS 201035Z 18009KT 22/12 A2995 RMK A01 T02230123  RH  054%=      5-min Rain = 0
KONS 201040Z 18008KT 22/12 A2996 RMK A01 T02230123  RH  054%=      5-min Rain = 0
KONS 201045Z 18008KT 22/12 A2996 RMK A01 T02210124  RH  055%=      5-min Rain = 0
KONS 201050Z 18007KT 22/12 A2996 RMK A01 T02210124  RH  055%=      5-min Rain = 0
KONS 201055Z 18008KT 22/12 A2996 RMK A01 T02200124  RH  056%=      5-min Rain = 0
KONS 201100Z 17008KT 22/12 A2996 RMK A01 T02200124  RH  055%=      5-min Rain = 0
KONS 201105Z 17007KT 22/12 A2996 RMK A01 T02190123  RH  055%=      5-min Rain = 0
KONS 201110Z 17007KT 22/12 A2996 RMK A01 T02180123  RH  056%=      5-min Rain = 0
KONS 201115Z 17007KT 22/12 A2996 RMK A01 T02180123  RH  056%=      5-min Rain = 0
KONS 201120Z 16007KT 22/12 A2996 RMK A01 T02160124  RH  057%=      5-min Rain = 0
KONS 201125Z 17008KT 22/12 A2996 RMK A01 T02170124  RH  057%=      5-min Rain = 0
KONS 201130Z 18007KT 22/13 A2996 RMK A01 T02170125  RH  057%=      5-min Rain = 0
KONS 201135Z 18008KT 22/13 A2996 RMK A01 T02160125  RH  057%=      5-min Rain = 0
KONS 201140Z 18008KT 22/13 A2996 RMK A01 T02150126  RH  058%=      5-min Rain = 0
KONS 201145Z 18008KT 21/13 A2996 RMK A01 T02140126  RH  058%=      5-min Rain = 0
KONS 201150Z 17008KT 21/13 A2996 RMK A01 T02130126  RH  059%=      5-min Rain = 0
KONS 201155Z 17007KT 21/13 A2996 RMK A01 T02130127  RH  059%=      5-min Rain = 0
KONS 201200Z 17006KT 21/13 A2997 RMK A01 T02120127  RH  059%=      5-min Rain = 0
KONS 201205Z 17007KT 21/13 A2996 RMK A01 T02120127  RH  060%=      5-min Rain = 0
KONS 201210Z 17007KT 21/13 A2996 RMK A01 T02120128  RH  060%=      5-min Rain = 0
KONS 201215Z 17007KT 21/13 A2996 RMK A01 T02130129  RH  060%=      5-min Rain = 0
KONS 201220Z 17007KT 22/13 A2996 RMK A01 T02150130  RH  059%=      5-min Rain = 0
KONS 201225Z 18007KT 22/13 A2997 RMK A01 T02180130  RH  059%=      5-min Rain = 0
KONS 201230Z 18007KT 22/13 A2997 RMK A01 T02190131  RH  058%=      5-min Rain = 0
KONS 201235Z 17006KT 22/13 A2997 RMK A01 T02200131  RH  058%=      5-min Rain = 0
KONS 201240Z 17005KT 22/13 A2997 RMK A01 T02210132  RH  058%=      5-min Rain = 0
KONS 201245Z 17005KT 22/13 A2997 RMK A01 T02240133  RH  058%=      5-min Rain = 0
KONS 201250Z 17006KT 23/13 A2997 RMK A01 T02260133  RH  057%=      5-min Rain = 0
KONS 201255Z 17008G13KT 23/13 A2997 RMK A01 T02280133  RH  056%=      5-min Rain = 0
KONS 201300Z 17008G13KT 23/13 A2997 RMK A01 T02300134  RH  055%=      5-min Rain = 0
KONS 201305Z 17009KT 23/13 A2997 RMK A01 T02320134  RH  055%=      5-min Rain = 0
KONS 201310Z 18010KT 23/13 A2997 RMK A01 T02340134  RH  055%=      5-min Rain = 0
KONS 201315Z 18011KT 24/13 A2997 RMK A01 T02350134  RH  054%=      5-min Rain = 0
KONS 201320Z 18011KT 24/14 A2997 RMK A01 T02360135  RH  054%=      5-min Rain = 0
KONS 201325Z 17010KT 24/14 A2997 RMK A01 T02390136  RH  054%=      5-min Rain = 0
KONS 201330Z 17012KT 24/14 A2997 RMK A01 T02400135  RH  053%=      5-min Rain = 0
KONS 201335Z 18011KT 24/14 A2997 RMK A01 T02420136  RH  053%=      5-min Rain = 0
KONS 201340Z 18012G17KT 24/14 A2997 RMK A01 T02440137  RH  052%=      5-min Rain = 0
KONS 201345Z 18011KT 25/14 A2997 RMK A01 T02470138  RH  052%=      5-min Rain = 0
KONS 201350Z 19011KT 25/14 A2998 RMK A01 T02480138  RH  051%=      5-min Rain = 0
KONS 201355Z 19011KT 25/14 A2998 RMK A01 T02500138  RH  051%=      5-min Rain = 0
KONS 201400Z 19011G16KT 25/14 A2998 RMK A01 T02510139  RH  051%=      5-min Rain = 0
KONS 201405Z 19012G17KT 25/14 A2998 RMK A01 T02540139  RH  050%=      5-min Rain = 0
KONS 201410Z 19012KT 26/14 A2998 RMK A01 T02550139  RH  050%=      5-min Rain = 0
KONS 201415Z 19015KT 26/14 A2997 RMK A01 T02570139  RH  049%=      5-min Rain = 0
KONS 201420Z 19013G18KT 26/14 A2998 RMK A01 T02590140  RH  049%=      5-min Rain = 0
KONS 201425Z 19014KT 26/14 A2997 RMK A01 T02620140  RH  048%=      5-min Rain = 0
KONS 201430Z 20016G21KT 26/14 A2997 RMK A01 T02620139  RH  048%=      5-min Rain = 0
KONS 201435Z 19015KT 26/14 A2997 RMK A01 T02630140  RH  048%=      5-min Rain = 0
KONS 201440Z 19013G18KT 27/14 A2998 RMK A01 T02670142  RH  047%=      5-min Rain = 0
KONS 201445Z 19015KT 27/14 A2998 RMK A01 T02710141  RH  046%=      5-min Rain = 0
KONS 201450Z 19012KT 27/14 A2998 RMK A01 T02720142  RH  046%=      5-min Rain = 0
KONS 201455Z 19013KT 27/14 A2998 RMK A01 T02730141  RH  045%=      5-min Rain = 0
KONS 201500Z 19013KT 28/14 A2998 RMK A01 T02770143  RH  045%=      5-min Rain = 0
KONS 201505Z 19013KT 28/14 A2997 RMK A01 T02800143  RH  044%=      5-min Rain = 0
KONS 201510Z 19011G16KT 28/14 A2997 RMK A01 T02820144  RH  044%=      5-min Rain = 0
KONS 201515Z 19014G19KT 28/14 A2997 RMK A01 T02820143  RH  044%=      5-min Rain = 0
KONS 201520Z 19015KT 28/14 A2997 RMK A01 T02820143  RH  043%=      5-min Rain = 0
KONS 201525Z 19013G18KT 29/14 A2997 RMK A01 T02850144  RH  043%=      5-min Rain = 0
KONS 201530Z 18012G17KT 29/15 A2997 RMK A01 T02900146  RH  042%=      5-min Rain = 0
KONS 201535Z 19013G18KT 29/14 A2997 RMK A01 T02910144  RH  042%=      5-min Rain = 0
KONS 201540Z 20014KT 29/14 A2997 RMK A01 T02910142  RH  041%=      5-min Rain = 0
KONS 201545Z 19014KT 29/14 A2997 RMK A01 T02930143  RH  041%=      5-min Rain = 0
KONS 201550Z 19012KT 29/14 A2997 RMK A01 T02930143  RH  041%=      5-min Rain = 0
KONS 201555Z 20012G17KT 30/14 A2997 RMK A01 T02950142  RH  040%=      5-min Rain = 0
KONS 201600Z 19014KT 30/14 A2997 RMK A01 T02980141  RH  039%=      5-min Rain = 0
KONS 201605Z 20012KT 30/14 A2997 RMK A01 T02990143  RH  040%=      5-min Rain = 0
KONS 201610Z 19012G17KT 30/14 A2997 RMK A01 T03030144  RH  039%=      5-min Rain = 0
KONS 201615Z 19012G17KT 31/15 A2996 RMK A01 T03060145  RH  038%=      5-min Rain = 0
KONS 201620Z 19012KT 31/14 A2996 RMK A01 T03050143  RH  038%=      5-min Rain = 0
KONS 201625Z 20014G19KT 31/14 A2996 RMK A01 T03090142  RH  037%=      5-min Rain = 0
KONS 201630Z 19012KT 31/14 A2996 RMK A01 T03090143  RH  037%=      5-min Rain = 0
KONS 201635Z 20013KT 31/14 A2996 RMK A01 T03110144  RH  037%=      5-min Rain = 0
KONS 201640Z 19012G17KT 31/14 A2996 RMK A01 T03100144  RH  037%=      5-min Rain = 0
KONS 201645Z 20012KT 32/15 A2996 RMK A01 T03150145  RH  036%=      5-min Rain = 0
KONS 201650Z 20013KT 32/14 A2996 RMK A01 T03160144  RH  036%=      5-min Rain = 0
KONS 201655Z 20011G17KT 32/14 A2996 RMK A01 T03180143  RH  035%=      5-min Rain = 0
KONS 201700Z 19012KT 32/14 A2996 RMK A01 T03190143  RH  035%=      5-min Rain = 0
KONS 201705Z 19012KT 32/14 A2996 RMK A01 T03180143  RH  035%=      5-min Rain = 0
KONS 201710Z 19012KT 33/14 A2996 RMK A01 T03260143  RH  034%=      5-min Rain = 0
KONS 201715Z 20013KT 33/14 A2996 RMK A01 T03280143  RH  033%=      5-min Rain = 0
KONS 201720Z 19012KT 33/14 A2996 RMK A01 T03290141  RH  033%=      5-min Rain = 0
KONS 201725Z 19011KT 33/14 A2996 RMK A01 T03310142  RH  033%=      5-min Rain = 0
KONS 201730Z 20013G18KT 33/14 A2996 RMK A01 T03320141  RH  032%=      5-min Rain = 0
KONS 201735Z 20012G18KT 33/14 A2996 RMK A01 T03320139  RH  032%=      5-min Rain = 0
KONS 201740Z 20012G17KT 33/14 A2996 RMK A01 T03330140  RH  032%=      5-min Rain = 0
KONS 201745Z 20011KT 34/14 A2996 RMK A01 T03350144  RH  032%=      5-min Rain = 0
KONS 201750Z 19012G17KT 34/14 A2996 RMK A01 T03400142  RH  031%=      5-min Rain = 0
KONS 201755Z 20010KT 34/14 A2996 RMK A01 T03350140  RH  031%=      5-min Rain = 0
KONS 201800Z 20011G16KT 34/14 A2996 RMK A01 T03390141  RH  031%=      5-min Rain = 0
KONS 201805Z 20012KT 34/14 A2996 RMK A01 T03410142  RH  031%=      5-min Rain = 0
KONS 201810Z 20009KT 34/14 A2995 RMK A01 T03390143  RH  032%=      5-min Rain = 0
KONS 201815Z 20010KT 35/14 A2995 RMK A01 T03450143  RH  030%=      5-min Rain = 0
KONS 201820Z 19011G20KT 35/14 A2995 RMK A01 T03470144  RH  030%=      5-min Rain = 0
KONS 201825Z 20010G15KT 35/14 A2995 RMK A01 T03450141  RH  030%=      5-min Rain = 0
KONS 201830Z 17012KT 35/14 A2995 RMK A01 T03450142  RH  030%=      5-min Rain = 0
KONS 201835Z 18009G14KT 35/14 A2995 RMK A01 T03490141  RH  029%=      5-min Rain = 0
KONS 201840Z 19012G18KT 35/14 A2995 RMK A01 T03490140  RH  029%=      5-min Rain = 0
KONS 201845Z 18010G17KT 35/14 A2994 RMK A01 T03510142  RH  029%=      5-min Rain = 0
KONS 201850Z 19011G17KT 35/14 A2994 RMK A01 T03520139  RH  029%=      5-min Rain = 0
KONS 201855Z 19011G17KT 35/14 A2994 RMK A01 T03510138  RH  029%=      5-min Rain = 0
KONS 201900Z 16011KT 35/14 A2994 RMK A01 T03540140  RH  028%=      5-min Rain = 0
KONS 201905Z 17012G18KT 35/14 A2994 RMK A01 T03520140  RH  029%=      5-min Rain = 0
KONS 201910Z 17013G18KT 35/14 A2994 RMK A01 T03540138  RH  028%=      5-min Rain = 0
KONS 201915Z 16013G19KT 35/14 A2993 RMK A01 T03540139  RH  028%=      5-min Rain = 0
KONS 201920Z 19012KT 36/14 A2993 RMK A01 T03600138  RH  027%=      5-min Rain = 0
KONS 201925Z 19012KT 36/14 A2993 RMK A01 T03600136  RH  027%=      5-min Rain = 0
KONS 201930Z 19012G18KT 36/14 A2993 RMK A01 T03590136  RH  027%=      5-min Rain = 0
KONS 201935Z 19013KT 36/13 A2993 RMK A01 T03630133  RH  026%=      5-min Rain = 0
KONS 201940Z 18013G18KT 36/14 A2993 RMK A01 T03630135  RH  026%=      5-min Rain = 0
KONS 201945Z 16013G19KT 37/14 A2992 RMK A01 T03650135  RH  026%=      5-min Rain = 0
KONS 201950Z 17014KT 37/14 A2992 RMK A01 T03660137  RH  026%=      5-min Rain = 0
KONS 201955Z 17013G18KT 37/13 A2992 RMK A01 T03650131  RH  025%=      5-min Rain = 0
KONS 202000Z 18015G20KT 37/14 A2991 RMK A01 T03700135  RH  025%=      5-min Rain = 0
KONS 202005Z 19014KT 37/13 A2991 RMK A01 T03690131  RH  025%=      5-min Rain = 0
KONS 202010Z 18014KT 37/13 A2991 RMK A01 T03700132  RH  025%=      5-min Rain = 0
KONS 202015Z 18015G20KT 37/13 A2991 RMK A01 T03710127  RH  024%=      5-min Rain = 0
KONS 202020Z 18014G22KT 37/13 A2991 RMK A01 T03710125  RH  023%=      5-min Rain = 0
KONS 202025Z 17016G21KT 37/12 A2991 RMK A01 T03700120  RH  023%=      5-min Rain = 0
KONS 202030Z 17013KT 37/13 A2991 RMK A01 T03720128  RH  024%=      5-min Rain = 0
KONS 202035Z 17014G22KT 37/13 A299 RMK A01 T03730129  RH  024%=      5-min Rain = 0
KONS 202040Z 16017KT 37/13 A299 RMK A01 T03700132  RH  024%=      5-min Rain = 0
KONS 202045Z 18015KT 37/13 A299 RMK A01 T03740125  RH  023%=      5-min Rain = 0
KONS 202050Z 19014KT 38/12 A299 RMK A01 T03760121  RH  022%=      5-min Rain = 0
KONS 202055Z 18014G19KT 38/12 A299 RMK A01 T03810117  RH  021%=      5-min Rain = 0
KONS 202100Z 18015G24KT 38/12 A299 RMK A01 T03790119  RH  022%=      5-min Rain = 0
KONS 202105Z 18012G18KT 38/13 A299 RMK A01 T03780128  RH  023%=      5-min Rain = 0
KONS 202110Z 18015KT 38/12 A299 RMK A01 T03830119  RH  021%=      5-min Rain = 0
KONS 202115Z 17013KT 38/13 A299 RMK A01 T03810126  RH  022%=      5-min Rain = 0
KONS 202120Z 17013G21KT 38/12 A2989 RMK A01 T03770124  RH  022%=      5-min Rain = 0
KONS 202125Z 18014G22KT 38/12 A2989 RMK A01 T03840123  RH  022%=      5-min Rain = 0
KONS 202130Z 17013G22KT 38/12 A2989 RMK A01 T03780121  RH  022%=      5-min Rain = 0
KONS 202135Z 17012G19KT 38/13 A2989 RMK A01 T03790125  RH  022%=      5-min Rain = 0
KONS 202140Z 16015G21KT 38/13 A2988 RMK A01 T03820128  RH  022%=      5-min Rain = 0
KONS 202145Z 19013G18KT 38/12 A2988 RMK A01 T03770122  RH  022%=      5-min Rain = 0
KONS 202150Z 17014G19KT 38/12 A2988 RMK A01 T03790120  RH  022%=      5-min Rain = 0
KONS 202155Z 16013G20KT 38/12 A2988 RMK A01 T03790124  RH  022%=      5-min Rain = 0
KONS 202200Z 20013G21KT 38/12 A2988 RMK A01 T03780118  RH  021%=      5-min Rain = 0
KONS 202205Z 18014KT 38/12 A2988 RMK A01 T03820122  RH  022%=      5-min Rain = 0
KONS 202210Z 17015G21KT 38/12 A2987 RMK A01 T03760121  RH  022%=      5-min Rain = 0
KONS 202215Z 16014KT 38/12 A2987 RMK A01 T03790124  RH  022%=      5-min Rain = 0
KONS 202220Z 16013G19KT 38/12 A2987 RMK A01 T03790116  RH  021%=      5-min Rain = 0
KONS 202225Z 16013G21KT 38/12 A2987 RMK A01 T03800119  RH  021%=      5-min Rain = 0
KONS 202230Z 17017G22KT 38/12 A2987 RMK A01 T03770115  RH  021%=      5-min Rain = 0
KONS 202235Z 18016G21KT 38/11 A2987 RMK A01 T03790114  RH  021%=      5-min Rain = 0
KONS 202240Z 18012G18KT 38/12 A2987 RMK A01 T03790116  RH  021%=      5-min Rain = 0
KONS 202245Z 16016G23KT 38/12 A2987 RMK A01 T03790119  RH  022%=      5-min Rain = 0
KONS 202250Z 17015KT 38/11 A2987 RMK A01 T03760114  RH  021%=      5-min Rain = 0
KONS 202255Z 17015G23KT 38/12 A2986 RMK A01 T03770119  RH  022%=      5-min Rain = 0
KONS 202300Z 16015G20KT 38/12 A2986 RMK A01 T03750120  RH  022%=      5-min Rain = 0
KONS 202305Z 17015KT 38/12 A2986 RMK A01 T03770121  RH  022%=      5-min Rain = 0
KONS 202310Z 17016G21KT 38/12 A2986 RMK A01 T03750118  RH  022%=      5-min Rain = 0
KONS 202315Z 17017KT 37/12 A2986 RMK A01 T03740122  RH  023%=      5-min Rain = 0
KONS 202320Z 15016G21KT 37/13 A2986 RMK A01 T03720125  RH  023%=      5-min Rain = 0
KONS 202325Z 15016G21KT 37/13 A2986 RMK A01 T03700126  RH  024%=      5-min Rain = 0
KONS 202330Z 16016G23KT 37/13 A2986 RMK A01 T03710126  RH  024%=      5-min Rain = 0
KONS 202335Z 15017G26KT 37/12 A2985 RMK A01 T03710124  RH  023%=      5-min Rain = 0
KONS 202340Z 16013KT 37/12 A2986 RMK A01 T03710124  RH  023%=      5-min Rain = 0
KONS 202345Z 16014G21KT 37/12 A2985 RMK A01 T03700123  RH  023%=      5-min Rain = 0
KONS 202350Z 16015G21KT 37/12 A2985 RMK A01 T03690124  RH  023%=      5-min Rain = 0
KONS 202355Z 16016KT 37/12 A2985 RMK A01 T03660123  RH  024%=      5-min Rain = 0
KONS 210000Z 16015G21KT 37/13 A2985 RMK A01 T03660126  RH  024%=      5-min Rain = 0
KONS 210005Z 16014KT 36/13 A2985 RMK A01 T03640129  RH  025%=      5-min Rain = 0
KONS 210010Z 16015KT 36/13 A2985 RMK A01 T03630127  RH  025%=      5-min Rain = 0
KONS 210015Z 16014G20KT 36/13 A2985 RMK A01 T03630127  RH  025%=      5-min Rain = 0
KONS 210020Z 16014G19KT 36/13 A2985 RMK A01 T03610131  RH  026%=      5-min Rain = 0
KONS 210025Z 16014G19KT 36/13 A2985 RMK A01 T03590128  RH  025%=      5-min Rain = 0
KONS 210030Z 16014KT 36/13 A2985 RMK A01 T03570129  RH  026%=      5-min Rain = 0
KONS 210035Z 16014KT 36/13 A2985 RMK A01 T03560127  RH  026%=      5-min Rain = 0
KONS 210040Z 16015G20KT 36/13 A2985 RMK A01 T03550125  RH  026%=      5-min Rain = 0
KONS 210045Z 16015G20KT 35/13 A2986 RMK A01 T03530126  RH  026%=      5-min Rain = 0
KONS 210050Z 16015G21KT 35/13 A2986 RMK A01 T03520125  RH  026%=      5-min Rain = 0
KONS 210055Z 16014G19KT 35/13 A2986 RMK A01 T03500126  RH  026%=      5-min Rain = 0
KONS 210100Z 16013KT 35/13 A2986 RMK A01 T03480127  RH  027%=      5-min Rain = 0
KONS 210105Z 16012KT 35/13 A2986 RMK A01 T03460128  RH  027%=      5-min Rain = 0
KONS 210110Z 16012KT 34/13 A2986 RMK A01 T03440129  RH  028%=      5-min Rain = 0
KONS 210115Z 16011KT 34/13 A2986 RMK A01 T03410130  RH  029%=      5-min Rain = 0
KONS 210120Z 16013G18KT 34/13 A2986 RMK A01 T03390128  RH  028%=      5-min Rain = 0
KONS 210125Z 16012KT 34/13 A2986 RMK A01 T03370127  RH  028%=      5-min Rain = 0
KONS 210130Z 16012G17KT 34/13 A2987 RMK A01 T03360126  RH  029%=      5-min Rain = 0
KONS 210135Z 16012KT 33/13 A2987 RMK A01 T03330127  RH  029%=      5-min Rain = 0
KONS 210140Z 16011KT 33/13 A2987 RMK A01 T03290129  RH  030%=      5-min Rain = 0
KONS 210145Z 16011KT 33/13 A2987 RMK A01 T03250129  RH  031%=      5-min Rain = 0
KONS 210150Z 16010KT 32/13 A2987 RMK A01 T03220129  RH  032%=      5-min Rain = 0
KONS 210155Z 16011KT 32/13 A2987 RMK A01 T03190128  RH  032%=      5-min Rain = 0
KONS 210200Z 16010KT 32/13 A2987 RMK A01 T03150129  RH  033%=      5-min Rain = 0
KONS 210205Z 16010KT 31/13 A2987 RMK A01 T03140128  RH  033%=      5-min Rain = 0
KONS 210210Z 16010KT 31/13 A2987 RMK A01 T03120127  RH  033%=      5-min Rain = 0
KONS 210215Z 16010KT 31/13 A2987 RMK A01 T03090128  RH  034%=      5-min Rain = 0
KONS 210220Z 15009KT 31/13 A2987 RMK A01 T03050129  RH  035%=      5-min Rain = 0
KONS 210225Z 15009KT 30/13 A2987 RMK A01 T03000130  RH  036%=      5-min Rain = 0
KONS 210230Z 15009KT 30/13 A2987 RMK A01 T02960131  RH  037%=      5-min Rain = 0
KONS 210235Z 16009KT 30/13 A2987 RMK A01 T02960130  RH  037%=      5-min Rain = 0
KONS 210240Z 16009KT 30/13 A2988 RMK A01 T02960129  RH  037%=      5-min Rain = 0
KONS 210245Z 16009KT 29/13 A2988 RMK A01 T02940129  RH  037%=      5-min Rain = 0
KONS 210250Z 15008KT 29/13 A2988 RMK A01 T02920129  RH  037%=      5-min Rain = 0
KONS 210255Z 15008KT 29/13 A2988 RMK A01 T02880129  RH  038%=      5-min Rain = 0
KONS 210300Z 15008KT 28/13 A2988 RMK A01 T02840130  RH  039%=      5-min Rain = 0
KONS 210305Z 15008KT 28/13 A2989 RMK A01 T02800130  RH  040%=      5-min Rain = 0
KONS 210310Z 15008KT 28/13 A2989 RMK A01 T02770132  RH  041%=      5-min Rain = 0
KONS 210315Z 15008KT 27/13 A2989 RMK A01 T02720134  RH  043%=      5-min Rain = 0
KONS 210320Z 15008KT 27/13 A2989 RMK A01 T02690134  RH  044%=      5-min Rain = 0
KONS 210325Z 15008KT 27/13 A2989 RMK A01 T02700134  RH  044%=      5-min Rain = 0
KONS 210330Z 15008KT 27/13 A299 RMK A01 T02710132  RH  043%=      5-min Rain = 0
KONS 210335Z 15008KT 27/13 A299 RMK A01 T02720130  RH  042%=      5-min Rain = 0
KONS 210340Z 15008KT 27/13 A299 RMK A01 T02700132  RH  043%=      5-min Rain = 0
KONS 210345Z 15007KT 27/13 A2991 RMK A01 T02660132  RH  045%=      5-min Rain = 0
KONS 210350Z 15007KT 26/13 A2991 RMK A01 T02640131  RH  045%=      5-min Rain = 0
KONS 210355Z 16008KT 27/13 A2991 RMK A01 T02650130  RH  044%=      5-min Rain = 0
KONS 210400Z 16008KT 27/13 A2991 RMK A01 T02680128  RH  043%=      5-min Rain = 0
KONS 210405Z 15009KT 27/13 A2992 RMK A01 T02720126  RH  041%=      5-min Rain = 0
KONS 210410Z 15008KT 27/13 A2992 RMK A01 T02720126  RH  041%=      5-min Rain = 0
KONS 210415Z 15008KT 27/13 A2992 RMK A01 T02680128  RH  043%=      5-min Rain = 0
KONS 210420Z 13008KT 26/13 A2992 RMK A01 T02610130  RH  045%=      5-min Rain = 0
KONS 210425Z 15008KT 26/13 A2992 RMK A01 T02590129  RH  045%=      5-min Rain = 0
KONS 210430Z 15008KT 26/13 A2992 RMK A01 T02620128  RH  044%=      5-min Rain = 0
KONS 210435Z 15008KT 26/13 A2993 RMK A01 T02610128  RH  045%=      5-min Rain = 0
KONS 210440Z 14008KT 26/13 A2993 RMK A01 T02570130  RH  046%=      5-min Rain = 0
KONS 210445Z 15008KT 25/13 A2993 RMK A01 T02540131  RH  048%=      5-min Rain = 0
KONS 210450Z 15008KT 25/13 A2993 RMK A01 T02520131  RH  048%=      5-min Rain = 0
KONS 210455Z 16008KT 26/13 A2993 RMK A01 T02550130  RH  047%=      5-min Rain = 0

Page generated in 0.0156 seconds.